Time;durP1;ratioP1;P1;durP2;ratioP2;P2;SDS_P1;SDS_P2;PMS_P1;PMS_P2;Temp;Humidity;BMP_temperature;BMP_pressure;BME280_temperature;BME280_humidity;BME280_pressure;Samples;Min_cycle;Max_cycle;Signal;HPM_P1;HPM_P2
2023/02/27 00:03:14;;;;;;;;;;;17.90;47.30;;;;;;10083512;28;958;-75
2023/02/27 00:08:09;;;;;;;;;;;18.00;47.30;;;;;;10082780;28;818;-75
2023/02/27 00:13:04;;;;;;;;;;;17.90;47.30;;;;;;10082627;28;891;-75
2023/02/27 00:18:00;;;;;;;;;;;17.90;47.30;;;;;;10083063;28;1964;-75
2023/02/27 00:22:55;;;;;;;;;;;17.90;47.20;;;;;;10083498;28;786;-75
2023/02/27 00:27:51;;;;;;;;;;;17.90;47.30;;;;;;10082832;28;788;-75
2023/02/27 00:32:47;;;;;;;;;;;17.90;47.40;;;;;;10082558;28;973;-75
2023/02/27 00:37:42;;;;;;;;;;;17.90;47.40;;;;;;10082420;28;1907;-75
2023/02/27 00:42:38;;;;;;;;;;;17.90;47.30;;;;;;10081579;28;1165;-75
2023/02/27 00:47:33;;;;;;;;;;;17.80;47.30;;;;;;10082194;28;782;-75
2023/02/27 00:52:28;;;;;;;;;;;17.80;47.30;;;;;;10082763;28;869;-75
2023/02/27 00:57:24;;;;;;;;;;;17.80;47.40;;;;;;10081793;28;1962;-75
2023/02/27 01:02:19;;;;;;;;;;;17.80;47.40;;;;;;10081160;28;889;-75
2023/02/27 01:07:15;;;;;;;;;;;17.80;47.40;;;;;;10082074;28;926;-75
2023/02/27 01:12:10;;;;;;;;;;;17.80;47.40;;;;;;10081456;28;887;-75
2023/02/27 01:17:05;;;;;;;;;;;17.80;47.40;;;;;;10081883;28;798;-75
2023/02/27 01:22:01;;;;;;;;;;;17.80;47.40;;;;;;10081628;28;1919;-75
2023/02/27 01:26:56;;;;;;;;;;;17.80;47.40;;;;;;10081116;28;913;-75
2023/02/27 01:31:51;;;;;;;;;;;17.80;47.30;;;;;;10081279;28;818;-75
2023/02/27 01:36:47;;;;;;;;;;;17.80;47.40;;;;;;10081259;28;842;-75
2023/02/27 01:41:42;;;;;;;;;;;17.80;47.30;;;;;;10080203;28;1968;-75
2023/02/27 01:46:37;;;;;;;;;;;17.80;47.20;;;;;;10081562;28;905;-75
2023/02/27 01:51:33;;;;;;;;;;;17.80;47.30;;;;;;10079119;28;869;-75
2023/02/27 01:56:28;;;;;;;;;;;17.80;47.30;;;;;;10080098;28;948;-75
2023/02/27 02:01:24;;;;;;;;;;;17.80;47.30;;;;;;10080668;28;1984;-75
2023/02/27 02:06:19;;;;;;;;;;;17.80;47.40;;;;;;10080475;28;893;-75
2023/02/27 02:11:14;;;;;;;;;;;17.70;47.40;;;;;;10079826;28;806;-75
2023/02/27 02:16:10;;;;;;;;;;;17.70;47.30;;;;;;10079610;28;912;-75
2023/02/27 02:21:05;;;;;;;;;;;17.70;47.30;;;;;;10079510;28;1970;-75
2023/02/27 02:26:00;;;;;;;;;;;17.70;47.30;;;;;;10079452;28;964;-75
2023/02/27 02:30:56;;;;;;;;;;;17.70;47.30;;;;;;10079896;28;893;-75
2023/02/27 02:35:51;;;;;;;;;;;17.70;47.30;;;;;;10079988;28;947;-75
2023/02/27 02:40:46;;;;;;;;;;;17.70;47.40;;;;;;10094331;28;1965;-75
2023/02/27 02:45:42;;;;;;;;;;;17.70;47.20;;;;;;10078464;28;833;-75
2023/02/27 02:50:37;;;;;;;;;;;17.70;47.20;;;;;;10079410;28;877;-75
2023/02/27 02:55:32;;;;;;;;;;;17.70;47.30;;;;;;10079601;28;964;-75
2023/02/27 03:00:28;;;;;;;;;;;17.70;47.30;;;;;;10079089;28;1895;-75
2023/02/27 03:05:23;;;;;;;;;;;17.70;47.20;;;;;;10083968;28;887;-75
2023/02/27 03:10:19;;;;;;;;;;;17.70;47.20;;;;;;10084887;28;854;-75
2023/02/27 03:15:14;;;;;;;;;;;17.70;47.30;;;;;;10085011;28;795;-75
2023/02/27 03:20:10;;;;;;;;;;;17.70;47.10;;;;;;10084749;28;1907;-75
2023/02/27 03:25:05;;;;;;;;;;;17.70;47.30;;;;;;10084757;28;772;-75
2023/02/27 03:30:00;;;;;;;;;;;17.60;47.10;;;;;;10084842;28;861;-75
2023/02/27 03:34:56;;;;;;;;;;;17.70;47.10;;;;;;10084456;28;818;-75
2023/02/27 03:39:51;;;;;;;;;;;17.70;47.20;;;;;;10085185;29;2040;-75
2023/02/27 03:44:46;;;;;;;;;;;17.60;47.10;;;;;;10084578;28;1299;-75
2023/02/27 03:49:42;;;;;;;;;;;17.60;47.10;;;;;;10083408;28;877;-75
2023/02/27 03:54:40;;;;;;;;;;;17.70;47.10;;;;;;10083820;28;858;-75
2023/02/27 03:59:35;;;;;;;;;;;17.60;47.10;;;;;;10084826;28;1969;-75
2023/02/27 04:04:30;;;;;;;;;;;17.60;47.00;;;;;;10084112;28;763;-75
2023/02/27 04:09:26;;;;;;;;;;;17.60;47.10;;;;;;10083345;28;853;-75
2023/02/27 04:14:21;;;;;;;;;;;17.60;47.10;;;;;;10082834;28;882;-75
2023/02/27 04:19:16;;;;;;;;;;;17.60;47.10;;;;;;10083066;28;1902;-75
2023/02/27 04:24:12;;;;;;;;;;;17.60;47.00;;;;;;10082984;28;868;-75
2023/02/27 04:29:07;;;;;;;;;;;17.60;47.00;;;;;;10083952;28;914;-75
2023/02/27 04:34:02;;;;;;;;;;;17.60;47.10;;;;;;10082681;28;857;-75
2023/02/27 04:38:58;;;;;;;;;;;17.60;47.10;;;;;;10082279;28;1895;-75
2023/02/27 04:43:53;;;;;;;;;;;17.50;47.10;;;;;;10082513;28;1554;-75
2023/02/27 04:48:49;;;;;;;;;;;17.50;47.10;;;;;;10082196;28;776;-75
2023/02/27 04:53:44;;;;;;;;;;;17.50;47.00;;;;;;10082759;28;814;-75
2023/02/27 04:58:39;;;;;;;;;;;17.50;47.20;;;;;;10082426;28;1915;-75
2023/02/27 05:03:35;;;;;;;;;;;17.50;47.00;;;;;;10082324;28;863;-75
2023/02/27 05:08:30;;;;;;;;;;;17.60;46.90;;;;;;10081625;28;755;-75
2023/02/27 05:13:25;;;;;;;;;;;17.60;46.90;;;;;;10080856;28;804;-75
2023/02/27 05:18:21;;;;;;;;;;;17.60;46.90;;;;;;10081218;28;1898;-75
2023/02/27 05:23:16;;;;;;;;;;;17.60;46.80;;;;;;10081147;28;895;-75
2023/02/27 05:28:11;;;;;;;;;;;17.70;46.70;;;;;;10080751;28;923;-75
2023/02/27 05:33:07;;;;;;;;;;;17.70;46.80;;;;;;10081468;28;933;-75
2023/02/27 05:38:02;;;;;;;;;;;17.70;46.70;;;;;;10080101;28;1974;-75
2023/02/27 05:42:57;;;;;;;;;;;17.70;46.60;;;;;;10081001;28;1428;-75
2023/02/27 05:47:53;;;;;;;;;;;17.60;46.70;;;;;;10081039;28;867;-78
2023/02/27 05:52:48;;;;;;;;;;;17.70;46.70;;;;;;10080916;28;1492;-78
2023/02/27 05:57:44;;;;;;;;;;;17.70;46.70;;;;;;10080098;28;1911;-78
2023/02/27 06:02:39;;;;;;;;;;;17.70;46.80;;;;;;10080067;28;873;-79
2023/02/27 06:07:34;;;;;;;;;;;17.70;46.70;;;;;;10079952;28;905;-78
2023/02/27 06:12:30;;;;;;;;;;;17.70;46.60;;;;;;10079749;28;965;-78
2023/02/27 06:17:25;;;;;;;;;;;17.70;46.70;;;;;;10080245;28;1956;-78
2023/02/27 06:22:20;;;;;;;;;;;17.70;46.70;;;;;;10080159;28;886;-79
2023/02/27 06:27:16;;;;;;;;;;;17.70;46.70;;;;;;10080063;28;841;-77
2023/02/27 06:32:11;;;;;;;;;;;17.70;46.80;;;;;;10078646;28;874;-78
2023/02/27 06:37:07;;;;;;;;;;;17.70;46.70;;;;;;10080802;28;936;-79
2023/02/27 06:42:02;;;;;;;;;;;17.70;46.80;;;;;;10087373;28;1973;-79
2023/02/27 06:46:57;;;;;;;;;;;17.60;46.60;;;;;;10086510;28;869;-78
2023/02/27 06:51:53;;;;;;;;;;;17.60;46.60;;;;;;10086559;28;863;-79
2023/02/27 06:56:49;;;;;;;;;;;17.70;46.70;;;;;;10086197;28;841;-79
2023/02/27 07:01:44;;;;;;;;;;;17.60;46.60;;;;;;10085994;28;1975;-71
2023/02/27 07:06:39;;;;;;;;;;;17.70;46.60;;;;;;10085329;28;861;-79
2023/02/27 07:11:35;;;;;;;;;;;17.60;46.70;;;;;;10085390;28;1115;-78
2023/02/27 07:16:30;;;;;;;;;;;17.60;46.80;;;;;;10085627;28;996;-78
2023/02/27 07:21:26;;;;;;;;;;;17.50;46.80;;;;;;10085439;28;1910;-78
2023/02/27 07:26:21;;;;;;;;;;;17.50;46.70;;;;;;10084745;28;837;-75
2023/02/27 07:31:16;;;;;;;;;;;17.50;46.80;;;;;;10083917;28;893;-74
2023/02/27 07:36:12;;;;;;;;;;;17.50;46.60;;;;;;10084448;28;893;-74
2023/02/27 07:41:07;;;;;;;;;;;17.50;46.60;;;;;;10084384;28;1974;-74
2023/02/27 07:46:02;;;;;;;;;;;17.60;46.70;;;;;;10084714;28;937;-74
2023/02/27 07:50:58;;;;;;;;;;;17.60;46.50;;;;;;10083905;28;966;-75
2023/02/27 07:55:53;;;;;;;;;;;17.60;46.60;;;;;;10084662;28;871;-75
2023/02/27 08:00:49;;;;;;;;;;;17.50;46.60;;;;;;10083881;28;1915;-75
2023/02/27 08:05:44;;;;;;;;;;;17.50;46.70;;;;;;10083701;28;885;-75
2023/02/27 08:10:39;;;;;;;;;;;17.50;46.60;;;;;;10083966;28;854;-76
2023/02/27 08:15:35;;;;;;;;;;;17.50;46.70;;;;;;10083820;28;814;-74
2023/02/27 08:20:30;;;;;;;;;;;17.60;46.70;;;;;;10083629;28;1906;-74
2023/02/27 08:25:26;;;;;;;;;;;17.60;46.70;;;;;;10083585;28;793;-77
2023/02/27 08:30:21;;;;;;;;;;;17.60;46.70;;;;;;10082244;28;900;-74
2023/02/27 08:35:16;;;;;;;;;;;17.60;46.70;;;;;;10083253;28;867;-73
2023/02/27 08:40:12;;;;;;;;;;;17.80;46.70;;;;;;10082563;28;1907;-74
2023/02/27 08:45:07;;;;;;;;;;;17.90;46.70;;;;;;10082802;28;1243;-74
2023/02/27 08:50:03;;;;;;;;;;;17.90;46.70;;;;;;10082975;28;902;-74
2023/02/27 08:54:58;;;;;;;;;;;17.90;46.70;;;;;;10082158;28;1019;-77
2023/02/27 08:59:53;;;;;;;;;;;17.80;46.90;;;;;;10081249;28;1918;-77
2023/02/27 09:04:49;;;;;;;;;;;17.70;47.10;;;;;;10082396;28;842;-77
2023/02/27 09:09:44;;;;;;;;;;;17.60;47.20;;;;;;10081748;28;895;-76
2023/02/27 09:14:39;;;;;;;;;;;17.60;47.10;;;;;;10082177;28;858;-77
2023/02/27 09:19:35;;;;;;;;;;;17.50;47.10;;;;;;10080655;28;1902;-78
2023/02/27 09:24:30;;;;;;;;;;;17.50;47.20;;;;;;10081169;28;797;-79
2023/02/27 09:29:26;;;;;;;;;;;17.50;47.30;;;;;;10081811;28;917;-78
2023/02/27 09:34:21;;;;;;;;;;;17.40;47.30;;;;;;10080821;28;966;-73
2023/02/27 09:39:17;;;;;;;;;;;17.60;47.20;;;;;;10080021;28;1903;-75
2023/02/27 09:44:12;;;;;;;;;;;17.60;47.30;;;;;;10081302;28;1244;-73
2023/02/27 09:49:08;;;;;;;;;;;17.60;47.20;;;;;;10080488;28;886;-73
2023/02/27 09:54:03;;;;;;;;;;;17.70;46.90;;;;;;10080914;28;797;-75
2023/02/27 09:58:58;;;;;;;;;;;17.80;46.60;;;;;;10079578;28;1914;-75
2023/02/27 10:03:54;;;;;;;;;;;17.80;46.50;;;;;;10079476;28;912;-76
2023/02/27 10:08:49;;;;;;;;;;;17.80;46.50;;;;;;10080063;28;798;-75
2023/02/27 10:13:44;;;;;;;;;;;17.80;46.60;;;;;;10078759;28;757;-74
2023/02/27 10:18:40;;;;;;;;;;;17.80;46.80;;;;;;10079231;28;1898;-75
2023/02/27 10:23:35;;;;;;;;;;;17.70;46.70;;;;;;10080120;28;798;-75
2023/02/27 10:28:30;;;;;;;;;;;17.80;46.70;;;;;;10080110;28;853;-74
2023/02/27 10:33:26;;;;;;;;;;;17.80;46.50;;;;;;10079307;28;797;-75
2023/02/27 10:38:21;;;;;;;;;;;17.90;46.50;;;;;;10079793;28;1911;-74
2023/02/27 10:43:17;;;;;;;;;;;17.90;46.40;;;;;;10079082;28;1215;-74
2023/02/27 10:48:13;;;;;;;;;;;17.90;46.30;;;;;;10078887;28;988;-74
2023/02/27 10:53:08;;;;;;;;;;;17.90;46.40;;;;;;10078784;28;1683;-75
2023/02/27 10:58:04;;;;;;;;;;;17.90;46.40;;;;;;10079450;28;1977;-75
2023/02/27 11:02:59;;;;;;;;;;;18.00;46.50;;;;;;10078595;28;798;-75
2023/02/27 11:07:55;;;;;;;;;;;17.90;46.40;;;;;;10079499;28;857;-74
2023/02/27 11:12:50;;;;;;;;;;;18.00;46.50;;;;;;10078354;28;881;-74
2023/02/27 11:17:46;;;;;;;;;;;18.00;46.50;;;;;;10078754;28;1910;-74
2023/02/27 11:22:41;;;;;;;;;;;17.90;46.40;;;;;;10078180;28;845;-77
2023/02/27 11:27:36;;;;;;;;;;;17.90;46.60;;;;;;10084602;28;1035;-78
2023/02/27 11:32:32;;;;;;;;;;;17.70;46.90;;;;;;10084618;28;909;-77
2023/02/27 11:37:27;;;;;;;;;;;17.70;47.10;;;;;;10099154;28;1062;-78
2023/02/27 11:42:23;;;;;;;;;;;17.60;47.10;;;;;;10123779;28;1891;-77
2023/02/27 11:47:18;;;;;;;;;;;17.60;47.20;;;;;;10124023;28;873;-77
2023/02/27 11:52:14;;;;;;;;;;;17.60;47.20;;;;;;10122938;28;766;-77
2023/02/27 11:57:10;;;;;;;;;;;17.60;47.20;;;;;;10123130;28;777;-77
2023/02/27 12:02:06;;;;;;;;;;;17.60;47.40;;;;;;10122868;28;1907;-77
2023/02/27 12:07:02;;;;;;;;;;;17.60;47.30;;;;;;10122786;28;857;-74
2023/02/27 12:11:57;;;;;;;;;;;17.60;47.30;;;;;;10122462;28;881;-82
2023/02/27 12:16:53;;;;;;;;;;;17.60;47.40;;;;;;10121920;28;897;-78
2023/02/27 12:21:48;;;;;;;;;;;17.60;47.40;;;;;;10122292;28;1907;-77
2023/02/27 12:26:44;;;;;;;;;;;17.60;47.40;;;;;;10121749;28;1067;-77
2023/02/27 12:31:39;;;;;;;;;;;17.60;47.40;;;;;;10121997;28;950;-77
2023/02/27 12:36:34;;;;;;;;;;;17.70;47.40;;;;;;10121289;28;802;-77
2023/02/27 12:41:30;;;;;;;;;;;17.70;47.40;;;;;;10121803;28;1954;-77
2023/02/27 12:46:25;;;;;;;;;;;17.70;47.40;;;;;;10122132;28;894;-79
2023/02/27 12:51:21;;;;;;;;;;;17.80;47.30;;;;;;10122012;28;857;-75
2023/02/27 12:56:16;;;;;;;;;;;17.80;47.30;;;;;;10121873;28;719;-76
2023/02/27 13:01:12;;;;;;;;;;;17.80;47.40;;;;;;10121053;28;1906;-77
2023/02/27 13:06:07;;;;;;;;;;;17.80;47.40;;;;;;10120923;28;798;-77
2023/02/27 13:11:02;;;;;;;;;;;17.80;47.30;;;;;;10121381;28;841;-81
2023/02/27 13:15:59;;;;;;;;;;;17.80;47.50;;;;;;10120083;28;960;-77
2023/02/27 13:20:54;;;;;;;;;;;17.70;47.60;;;;;;10120325;28;1903;-77
2023/02/27 13:25:50;;;;;;;;;;;17.80;47.50;;;;;;10120389;28;834;-77
2023/02/27 13:30:45;;;;;;;;;;;17.90;47.50;;;;;;10120166;28;941;-80
2023/02/27 13:35:40;;;;;;;;;;;17.80;47.60;;;;;;10121332;28;775;-77
2023/02/27 13:40:36;;;;;;;;;;;17.80;47.60;;;;;;10119942;28;1895;-77
2023/02/27 13:45:32;;;;;;;;;;;17.80;47.60;;;;;;10119799;28;957;-77
2023/02/27 13:50:28;;;;;;;;;;;17.80;47.70;;;;;;10119488;28;1128;-84
2023/02/27 13:55:23;;;;;;;;;;;17.90;47.50;;;;;;10120277;28;888;-85
2023/02/27 14:00:19;;;;;;;;;;;18.00;47.50;;;;;;10119363;28;1966;-77
2023/02/27 14:05:16;;;;;;;;;;;18.20;47.40;;;;;;10119517;28;869;-77
2023/02/27 14:10:12;;;;;;;;;;;18.30;47.10;;;;;;10119580;28;872;-77
2023/02/27 14:15:07;;;;;;;;;;;18.40;47.00;;;;;;10119850;28;846;-77
2023/02/27 14:20:04;;;;;;;;;;;18.50;47.00;;;;;;10119096;28;1902;-77
2023/02/27 14:25:04;;;;;;;;;;;18.50;46.90;;;;;;10118451;28;869;-77
2023/02/27 14:29:59;;;;;;;;;;;18.40;47.10;;;;;;10117691;28;1010;-77
2023/02/27 14:34:55;;;;;;;;;;;18.30;47.30;;;;;;10118815;28;921;-77
2023/02/27 14:39:50;;;;;;;;;;;18.50;47.10;;;;;;10118650;28;1906;-77
2023/02/27 14:44:45;;;;;;;;;;;18.70;47.50;;;;;;10118057;28;1263;-77
2023/02/27 14:49:41;;;;;;;;;;;18.80;46.80;;;;;;10117880;28;818;-77
2023/02/27 14:54:36;;;;;;;;;;;18.90;46.60;;;;;;10118484;28;834;-77
2023/02/27 14:59:35;;;;;;;;;;;19.00;46.60;;;;;;10120089;28;1978;-77
2023/02/27 15:04:31;;;;;;;;;;;19.00;46.60;;;;;;10125319;28;857;-77
2023/02/27 15:09:26;;;;;;;;;;;19.10;46.50;;;;;;10125278;28;886;-77
2023/02/27 15:14:21;;;;;;;;;;;19.20;46.40;;;;;;10124471;28;984;-88
2023/02/27 15:19:18;;;;;;;;;;;19.00;46.70;;;;;;10124763;28;1910;-77
2023/02/27 15:24:13;;;;;;;;;;;18.80;47.00;;;;;;10124207;28;836;-74
2023/02/27 15:29:08;;;;;;;;;;;18.70;47.30;;;;;;10123998;28;869;-74
2023/02/27 15:34:04;;;;;;;;;;;18.50;47.30;;;;;;10125178;28;931;-74
2023/02/27 15:38:59;;;;;;;;;;;18.60;47.40;;;;;;10123657;28;1983;-75
2023/02/27 15:43:55;;;;;;;;;;;18.70;47.30;;;;;;10124327;28;1178;-74
2023/02/27 15:48:50;;;;;;;;;;;18.50;47.40;;;;;;10123441;28;995;-74
2023/02/27 15:53:45;;;;;;;;;;;18.50;48.00;;;;;;10123542;28;913;-75
2023/02/27 15:58:41;;;;;;;;;;;18.70;47.20;;;;;;10123646;28;1972;-74
2023/02/27 16:03:36;;;;;;;;;;;18.80;47.10;;;;;;10123538;28;842;-76
2023/02/27 16:08:31;;;;;;;;;;;18.90;47.10;;;;;;10123404;28;852;-76
2023/02/27 16:13:27;;;;;;;;;;;18.80;47.00;;;;;;10121357;28;774;-74
2023/02/27 16:18:23;;;;;;;;;;;18.80;47.00;;;;;;10122408;28;1959;-75
2023/02/27 16:23:21;;;;;;;;;;;18.80;47.10;;;;;;10121800;28;845;-78
2023/02/27 16:28:16;;;;;;;;;;;18.70;47.10;;;;;;10122796;28;814;-76
2023/02/27 16:33:11;;;;;;;;;;;18.60;47.30;;;;;;10123358;28;825;-77
2023/02/27 16:38:07;;;;;;;;;;;18.50;47.40;;;;;;10121860;28;1902;-77
2023/02/27 16:43:02;;;;;;;;;;;18.50;47.50;;;;;;10121211;28;1137;-77
2023/02/27 16:47:58;;;;;;;;;;;18.50;47.60;;;;;;10122706;28;873;-77
2023/02/27 16:52:53;;;;;;;;;;;18.50;47.60;;;;;;10121549;28;829;-77
2023/02/27 16:57:48;;;;;;;;;;;18.40;47.50;;;;;;10120628;28;1910;-77
2023/02/27 17:02:45;;;;;;;;;;;18.40;47.60;;;;;;10121965;28;794;-75
2023/02/27 17:07:40;;;;;;;;;;;18.40;47.60;;;;;;10121605;28;859;-77
2023/02/27 17:12:36;;;;;;;;;;;18.40;47.50;;;;;;10120871;28;869;-78
2023/02/27 17:17:31;;;;;;;;;;;18.40;47.50;;;;;;10121298;28;825;-77
2023/02/27 17:22:27;;;;;;;;;;;18.40;47.50;;;;;;10120161;28;1902;-78
2023/02/27 17:27:22;;;;;;;;;;;18.30;47.40;;;;;;10120452;28;881;-77
2023/02/27 17:32:17;;;;;;;;;;;18.30;47.40;;;;;;10121497;28;857;-77
2023/02/27 17:37:13;;;;;;;;;;;18.30;47.40;;;;;;10120173;28;982;-77
2023/02/27 17:42:10;;;;;;;;;;;18.30;47.40;;;;;;10120173;28;1918;-77
2023/02/27 17:47:05;;;;;;;;;;;18.30;47.40;;;;;;10120698;28;868;-77
2023/02/27 17:52:01;;;;;;;;;;;18.30;47.40;;;;;;10119862;28;924;-77
2023/02/27 17:56:56;;;;;;;;;;;18.30;47.40;;;;;;10120121;28;958;-78
2023/02/27 18:01:52;;;;;;;;;;;18.30;47.40;;;;;;10118701;28;1971;-77
2023/02/27 18:06:49;;;;;;;;;;;18.30;47.40;;;;;;10119873;28;794;-78
2023/02/27 18:11:44;;;;;;;;;;;18.30;47.40;;;;;;10119536;28;935;-77
2023/02/27 18:16:41;;;;;;;;;;;18.30;47.40;;;;;;10119625;28;852;-77
2023/02/27 18:21:36;;;;;;;;;;;18.30;47.40;;;;;;10118814;28;1911;-77
2023/02/27 18:26:32;;;;;;;;;;;18.30;47.20;;;;;;10119279;28;860;-77
2023/02/27 18:31:27;;;;;;;;;;;18.30;47.30;;;;;;10119451;28;1000;-78
2023/02/27 18:36:23;;;;;;;;;;;18.30;47.40;;;;;;10124388;28;859;-77
2023/02/27 18:41:18;;;;;;;;;;;18.30;47.40;;;;;;10125282;28;1952;-77
2023/02/27 18:46:14;;;;;;;;;;;18.20;47.30;;;;;;10124942;28;1339;-78
2023/02/27 18:51:11;;;;;;;;;;;18.30;47.30;;;;;;10125770;28;781;-77
2023/02/27 18:56:06;;;;;;;;;;;18.20;47.20;;;;;;10125169;28;868;-77
2023/02/27 19:01:02;;;;;;;;;;;18.20;47.30;;;;;;10124840;28;1975;-77
2023/02/27 19:05:58;;;;;;;;;;;18.30;47.30;;;;;;10124708;28;965;-77
2023/02/27 19:10:53;;;;;;;;;;;18.20;47.30;;;;;;10125266;28;796;-77
2023/02/27 19:15:48;;;;;;;;;;;18.20;47.30;;;;;;10124503;28;935;-78
2023/02/27 19:20:44;;;;;;;;;;;18.30;47.30;;;;;;10124531;28;1907;-78
2023/02/27 19:25:40;;;;;;;;;;;18.30;47.20;;;;;;10124748;28;801;-77
2023/02/27 19:30:36;;;;;;;;;;;18.30;47.30;;;;;;10123937;28;985;-78
2023/02/27 19:35:31;;;;;;;;;;;18.30;47.30;;;;;;10124516;28;876;-78
2023/02/27 19:40:27;;;;;;;;;;;18.20;47.20;;;;;;10124707;28;1962;-80
2023/02/27 19:45:22;;;;;;;;;;;18.20;47.20;;;;;;10122943;28;1325;-83
2023/02/27 19:50:17;;;;;;;;;;;18.30;47.30;;;;;;10123365;28;830;-78
2023/02/27 19:55:13;;;;;;;;;;;18.20;47.30;;;;;;10123304;28;769;-77
2023/02/27 20:00:09;;;;;;;;;;;18.30;47.40;;;;;;10123057;28;1910;-74
2023/02/27 20:05:04;;;;;;;;;;;18.30;47.20;;;;;;10123000;28;801;-74
2023/02/27 20:10:00;;;;;;;;;;;18.30;47.20;;;;;;10122776;28;865;-74
2023/02/27 20:14:55;;;;;;;;;;;18.30;47.20;;;;;;10122665;28;779;-72
2023/02/27 20:19:50;;;;;;;;;;;18.30;47.10;;;;;;10122483;28;1906;-73
2023/02/27 20:24:46;;;;;;;;;;;18.30;47.10;;;;;;10122360;28;1035;-73
2023/02/27 20:29:41;;;;;;;;;;;18.30;47.10;;;;;;10122258;28;869;-73
2023/02/27 20:34:36;;;;;;;;;;;18.30;47.10;;;;;;10122665;28;968;-73
2023/02/27 20:39:32;;;;;;;;;;;18.30;47.10;;;;;;10122437;28;1899;-73
2023/02/27 20:44:27;;;;;;;;;;;18.30;47.10;;;;;;10122441;28;1408;-73
2023/02/27 20:49:23;;;;;;;;;;;18.30;47.30;;;;;;10121622;28;858;-73
2023/02/27 20:54:19;;;;;;;;;;;18.20;47.20;;;;;;10121561;28;868;-73
2023/02/27 20:59:14;;;;;;;;;;;18.30;47.30;;;;;;10120456;28;1914;-73
2023/02/27 21:04:09;;;;;;;;;;;18.20;47.30;;;;;;10121179;28;817;-73
2023/02/27 21:09:05;;;;;;;;;;;18.20;47.30;;;;;;10120494;28;953;-73
2023/02/27 21:14:00;;;;;;;;;;;18.20;47.20;;;;;;10120902;28;940;-73
2023/02/27 21:18:56;;;;;;;;;;;18.20;47.20;;;;;;10121493;28;1951;-73
2023/02/27 21:23:51;;;;;;;;;;;18.20;47.20;;;;;;10120559;28;883;-73
2023/02/27 21:28:49;;;;;;;;;;;18.20;47.20;;;;;;10120648;28;992;-73
2023/02/27 21:33:44;;;;;;;;;;;18.20;47.20;;;;;;10120275;28;783;-73
2023/02/27 21:38:40;;;;;;;;;;;18.20;47.20;;;;;;10120568;28;1957;-73
2023/02/27 21:43:35;;;;;;;;;;;18.20;47.30;;;;;;10119924;28;1426;-73
2023/02/27 21:48:30;;;;;;;;;;;18.20;47.20;;;;;;10120462;28;817;-73
2023/02/27 21:53:26;;;;;;;;;;;18.30;47.20;;;;;;10120352;28;884;-73
2023/02/27 21:58:21;;;;;;;;;;;18.20;47.20;;;;;;10119493;28;1974;-73
2023/02/27 22:03:17;;;;;;;;;;;18.20;47.20;;;;;;10119439;28;818;-73
2023/02/27 22:08:12;;;;;;;;;;;18.20;47.20;;;;;;10119925;28;841;-73
2023/02/27 22:13:07;;;;;;;;;;;18.20;47.80;;;;;;10119133;28;834;-73
2023/02/27 22:18:03;;;;;;;;;;;18.20;47.20;;;;;;10118926;28;1903;-73
2023/02/27 22:23:00;;;;;;;;;;;18.20;47.20;;;;;;10118911;28;930;-73
2023/02/27 22:27:56;;;;;;;;;;;18.20;47.20;;;;;;10119513;28;841;-73
2023/02/27 22:32:51;;;;;;;;;;;18.10;47.30;;;;;;10118644;28;813;-73
2023/02/27 22:37:46;;;;;;;;;;;18.10;47.20;;;;;;10118629;28;1027;-73
2023/02/27 22:42:42;;;;;;;;;;;18.20;47.30;;;;;;10119367;28;1911;-73
2023/02/27 22:47:37;;;;;;;;;;;18.20;47.20;;;;;;10118317;28;821;-73
2023/02/27 22:52:32;;;;;;;;;;;18.20;47.20;;;;;;10118778;28;849;-73
2023/02/27 22:57:28;;;;;;;;;;;18.10;47.20;;;;;;10118716;28;947;-73
2023/02/27 23:02:24;;;;;;;;;;;18.10;47.30;;;;;;10118696;28;1910;-73
2023/02/27 23:07:19;;;;;;;;;;;18.10;47.30;;;;;;10118436;28;788;-73
2023/02/27 23:12:14;;;;;;;;;;;18.10;47.20;;;;;;10118604;28;889;-73
2023/02/27 23:17:10;;;;;;;;;;;18.10;47.30;;;;;;10117058;28;928;-73
2023/02/27 23:22:05;;;;;;;;;;;18.10;47.30;;;;;;10121508;28;1973;-73
2023/02/27 23:27:04;;;;;;;;;;;18.10;47.30;;;;;;10123612;28;869;-73
2023/02/27 23:31:59;;;;;;;;;;;18.10;47.30;;;;;;10124008;28;810;-73
2023/02/27 23:36:54;;;;;;;;;;;18.10;47.30;;;;;;10123889;28;885;-73
2023/02/27 23:41:50;;;;;;;;;;;18.10;47.30;;;;;;10123582;28;2058;-73
2023/02/27 23:46:45;;;;;;;;;;;18.10;47.20;;;;;;10124743;28;807;-73
2023/02/27 23:51:41;;;;;;;;;;;18.10;47.20;;;;;;10123401;28;790;-73
2023/02/27 23:56:36;;;;;;;;;;;18.10;47.30;;;;;;10123320;28;771;-73
